sensor_id;sensor_type;location;lat;lon;timestamp;P1;durP1;ratioP1;P2;durP2;ratioP2
10244;SDS011;5167;52.164;10.530;2022-12-18T00:01:24;38.57;;;19.23;;
10244;SDS011;5167;52.164;10.530;2022-12-18T00:03:52;38.07;;;20.57;;
10244;SDS011;5167;52.164;10.530;2022-12-18T00:06:18;32.97;;;18.00;;
10244;SDS011;5167;52.164;10.530;2022-12-18T00:08:45;33.00;;;17.90;;
10244;SDS011;5167;52.164;10.530;2022-12-18T00:11:11;38.37;;;18.67;;
10244;SDS011;5167;52.164;10.530;2022-12-18T00:13:38;43.10;;;20.27;;
10244;SDS011;5167;52.164;10.530;2022-12-18T00:16:05;40.53;;;19.53;;
10244;SDS011;5167;52.164;10.530;2022-12-18T00:18:33;39.47;;;18.83;;
10244;SDS011;5167;52.164;10.530;2022-12-18T00:20:59;32.23;;;17.47;;
10244;SDS011;5167;52.164;10.530;2022-12-18T00:23:26;38.60;;;19.60;;
10244;SDS011;5167;52.164;10.530;2022-12-18T00:25:52;42.70;;;18.33;;
10244;SDS011;5167;52.164;10.530;2022-12-18T00:28:17;36.00;;;18.77;;
10244;SDS011;5167;52.164;10.530;2022-12-18T00:30:43;34.17;;;17.03;;
10244;SDS011;5167;52.164;10.530;2022-12-18T00:33:09;35.40;;;18.50;;
10244;SDS011;5167;52.164;10.530;2022-12-18T00:35:34;32.53;;;17.73;;
10244;SDS011;5167;52.164;10.530;2022-12-18T00:38:00;37.73;;;17.03;;
10244;SDS011;5167;52.164;10.530;2022-12-18T00:40:25;39.60;;;19.50;;
10244;SDS011;5167;52.164;10.530;2022-12-18T00:42:51;36.63;;;17.10;;
10244;SDS011;5167;52.164;10.530;2022-12-18T00:45:26;37.63;;;18.23;;
10244;SDS011;5167;52.164;10.530;2022-12-18T00:47:53;36.97;;;17.87;;
10244;SDS011;5167;52.164;10.530;2022-12-18T00:50:19;38.40;;;18.10;;
10244;SDS011;5167;52.164;10.530;2022-12-18T00:52:45;33.27;;;16.67;;
10244;SDS011;5167;52.164;10.530;2022-12-18T00:55:11;39.27;;;17.53;;
10244;SDS011;5167;52.164;10.530;2022-12-18T00:57:37;32.10;;;17.00;;
10244;SDS011;5167;52.164;10.530;2022-12-18T01:00:04;28.37;;;15.10;;
10244;SDS011;5167;52.164;10.530;2022-12-18T01:02:30;30.53;;;18.37;;
10244;SDS011;5167;52.164;10.530;2022-12-18T01:04:56;40.10;;;18.67;;
10244;SDS011;5167;52.164;10.530;2022-12-18T01:07:22;32.93;;;18.47;;
10244;SDS011;5167;52.164;10.530;2022-12-18T01:09:47;31.77;;;16.87;;
10244;SDS011;5167;52.164;10.530;2022-12-18T01:12:13;32.83;;;16.67;;
10244;SDS011;5167;52.164;10.530;2022-12-18T01:14:38;33.93;;;16.90;;
10244;SDS011;5167;52.164;10.530;2022-12-18T01:17:04;32.23;;;16.03;;
10244;SDS011;5167;52.164;10.530;2022-12-18T01:19:29;31.90;;;18.73;;
10244;SDS011;5167;52.164;10.530;2022-12-18T01:21:55;33.27;;;16.80;;
10244;SDS011;5167;52.164;10.530;2022-12-18T01:24:21;36.40;;;18.43;;
10244;SDS011;5167;52.164;10.530;2022-12-18T01:26:46;34.63;;;16.93;;
10244;SDS011;5167;52.164;10.530;2022-12-18T01:29:12;31.70;;;15.67;;
10244;SDS011;5167;52.164;10.530;2022-12-18T01:31:38;31.63;;;15.53;;
10244;SDS011;5167;52.164;10.530;2022-12-18T01:34:04;36.57;;;17.33;;
10244;SDS011;5167;52.164;10.530;2022-12-18T01:36:31;34.13;;;17.20;;
10244;SDS011;5167;52.164;10.530;2022-12-18T01:38:59;35.30;;;17.63;;
10244;SDS011;5167;52.164;10.530;2022-12-18T01:41:27;34.20;;;17.30;;
10244;SDS011;5167;52.164;10.530;2022-12-18T01:47:24;37.17;;;17.73;;
10244;SDS011;5167;52.164;10.530;2022-12-18T01:49:53;32.03;;;16.30;;
10244;SDS011;5167;52.164;10.530;2022-12-18T01:52:20;30.30;;;15.87;;
10244;SDS011;5167;52.164;10.530;2022-12-18T01:54:48;35.07;;;17.00;;
10244;SDS011;5167;52.164;10.530;2022-12-18T01:57:15;34.13;;;17.53;;
10244;SDS011;5167;52.164;10.530;2022-12-18T01:59:41;36.70;;;18.60;;
10244;SDS011;5167;52.164;10.530;2022-12-18T02:02:10;32.73;;;16.87;;
10244;SDS011;5167;52.164;10.530;2022-12-18T02:04:36;31.57;;;16.63;;
10244;SDS011;5167;52.164;10.530;2022-12-18T02:07:05;31.70;;;16.27;;
10244;SDS011;5167;52.164;10.530;2022-12-18T02:10:00;32.97;;;17.93;;
10244;SDS011;5167;52.164;10.530;2022-12-18T02:12:49;29.77;;;15.77;;
10244;SDS011;5167;52.164;10.530;2022-12-18T02:18:40;29.53;;;15.57;;
10244;SDS011;5167;52.164;10.530;2022-12-18T02:23:39;34.07;;;16.70;;
10244;SDS011;5167;52.164;10.530;2022-12-18T02:28:56;39.90;;;17.53;;
10244;SDS011;5167;52.164;10.530;2022-12-18T02:31:44;34.43;;;17.70;;
10244;SDS011;5167;52.164;10.530;2022-12-18T02:34:14;32.07;;;15.93;;
10244;SDS011;5167;52.164;10.530;2022-12-18T02:36:42;38.60;;;15.43;;
10244;SDS011;5167;52.164;10.530;2022-12-18T02:39:10;34.53;;;18.07;;
10244;SDS011;5167;52.164;10.530;2022-12-18T02:41:37;38.40;;;19.60;;
10244;SDS011;5167;52.164;10.530;2022-12-18T02:44:07;40.17;;;18.80;;
10244;SDS011;5167;52.164;10.530;2022-12-18T02:46:35;31.53;;;16.97;;
10244;SDS011;5167;52.164;10.530;2022-12-18T02:52:10;26.47;;;14.33;;
10244;SDS011;5167;52.164;10.530;2022-12-18T02:57:42;32.23;;;15.33;;
10244;SDS011;5167;52.164;10.530;2022-12-18T03:00:37;34.30;;;17.20;;
10244;SDS011;5167;52.164;10.530;2022-12-18T03:03:24;24.63;;;14.90;;
10244;SDS011;5167;52.164;10.530;2022-12-18T03:06:11;31.70;;;16.97;;
10244;SDS011;5167;52.164;10.530;2022-12-18T03:08:44;24.47;;;14.03;;
10244;SDS011;5167;52.164;10.530;2022-12-18T03:11:15;35.10;;;16.60;;
10244;SDS011;5167;52.164;10.530;2022-12-18T03:14:01;33.60;;;16.97;;
10244;SDS011;5167;52.164;10.530;2022-12-18T03:16:28;34.67;;;17.37;;
10244;SDS011;5167;52.164;10.530;2022-12-18T03:18:57;31.67;;;18.20;;
10244;SDS011;5167;52.164;10.530;2022-12-18T03:21:28;28.87;;;16.00;;
10244;SDS011;5167;52.164;10.530;2022-12-18T03:24:02;29.03;;;15.23;;
10244;SDS011;5167;52.164;10.530;2022-12-18T03:26:32;27.73;;;15.97;;
10244;SDS011;5167;52.164;10.530;2022-12-18T03:29:01;29.20;;;17.47;;
10244;SDS011;5167;52.164;10.530;2022-12-18T03:31:32;28.27;;;16.10;;
10244;SDS011;5167;52.164;10.530;2022-12-18T03:33:58;33.97;;;15.60;;
10244;SDS011;5167;52.164;10.530;2022-12-18T03:36:27;26.13;;;15.63;;
10244;SDS011;5167;52.164;10.530;2022-12-18T03:38:53;33.47;;;15.83;;
10244;SDS011;5167;52.164;10.530;2022-12-18T03:41:37;30.97;;;14.80;;
10244;SDS011;5167;52.164;10.530;2022-12-18T03:44:20;25.50;;;14.73;;
10244;SDS011;5167;52.164;10.530;2022-12-18T03:52:22;32.13;;;16.37;;
10244;SDS011;5167;52.164;10.530;2022-12-18T03:54:53;25.73;;;14.50;;
10244;SDS011;5167;52.164;10.530;2022-12-18T03:57:22;29.03;;;16.07;;
10244;SDS011;5167;52.164;10.530;2022-12-18T03:59:52;36.87;;;17.27;;
10244;SDS011;5167;52.164;10.530;2022-12-18T04:02:22;31.40;;;15.63;;
10244;SDS011;5167;52.164;10.530;2022-12-18T04:04:50;32.17;;;16.43;;
10244;SDS011;5167;52.164;10.530;2022-12-18T04:07:18;24.97;;;15.07;;
10244;SDS011;5167;52.164;10.530;2022-12-18T04:09:45;29.00;;;15.43;;
10244;SDS011;5167;52.164;10.530;2022-12-18T04:12:13;33.33;;;16.07;;
10244;SDS011;5167;52.164;10.530;2022-12-18T04:14:38;29.70;;;16.87;;
10244;SDS011;5167;52.164;10.530;2022-12-18T04:17:04;30.77;;;14.90;;
10244;SDS011;5167;52.164;10.530;2022-12-18T04:19:29;30.33;;;16.20;;
10244;SDS011;5167;52.164;10.530;2022-12-18T04:21:55;34.60;;;16.37;;
10244;SDS011;5167;52.164;10.530;2022-12-18T04:24:20;32.70;;;15.03;;
10244;SDS011;5167;52.164;10.530;2022-12-18T04:26:46;28.03;;;15.37;;
10244;SDS011;5167;52.164;10.530;2022-12-18T04:29:11;38.03;;;18.57;;
10244;SDS011;5167;52.164;10.530;2022-12-18T04:31:37;37.37;;;18.30;;
10244;SDS011;5167;52.164;10.530;2022-12-18T04:34:03;33.63;;;17.67;;
10244;SDS011;5167;52.164;10.530;2022-12-18T04:36:28;32.90;;;16.43;;
10244;SDS011;5167;52.164;10.530;2022-12-18T04:38:54;30.73;;;16.00;;
10244;SDS011;5167;52.164;10.530;2022-12-18T04:41:20;28.10;;;15.10;;
10244;SDS011;5167;52.164;10.530;2022-12-18T04:43:46;27.93;;;14.63;;
10244;SDS011;5167;52.164;10.530;2022-12-18T04:46:11;32.83;;;14.27;;
10244;SDS011;5167;52.164;10.530;2022-12-18T04:48:37;29.27;;;15.00;;
10244;SDS011;5167;52.164;10.530;2022-12-18T04:51:03;34.63;;;17.73;;
10244;SDS011;5167;52.164;10.530;2022-12-18T04:53:29;34.23;;;16.40;;
10244;SDS011;5167;52.164;10.530;2022-12-18T04:56:08;35.07;;;16.03;;
10244;SDS011;5167;52.164;10.530;2022-12-18T04:58:38;43.73;;;17.67;;
10244;SDS011;5167;52.164;10.530;2022-12-18T05:01:05;31.67;;;14.23;;
10244;SDS011;5167;52.164;10.530;2022-12-18T05:03:32;33.40;;;16.77;;
10244;SDS011;5167;52.164;10.530;2022-12-18T05:05:58;32.37;;;14.43;;
10244;SDS011;5167;52.164;10.530;2022-12-18T05:08:24;28.47;;;15.40;;
10244;SDS011;5167;52.164;10.530;2022-12-18T05:10:57;39.63;;;17.63;;
10244;SDS011;5167;52.164;10.530;2022-12-18T05:13:23;32.60;;;15.90;;
10244;SDS011;5167;52.164;10.530;2022-12-18T05:15:52;31.57;;;15.43;;
10244;SDS011;5167;52.164;10.530;2022-12-18T05:18:18;29.43;;;15.13;;
10244;SDS011;5167;52.164;10.530;2022-12-18T05:20:43;30.80;;;14.73;;
10244;SDS011;5167;52.164;10.530;2022-12-18T05:23:09;31.67;;;15.40;;
10244;SDS011;5167;52.164;10.530;2022-12-18T05:25:34;30.47;;;14.37;;
10244;SDS011;5167;52.164;10.530;2022-12-18T05:28:00;35.40;;;16.97;;
10244;SDS011;5167;52.164;10.530;2022-12-18T05:30:25;27.80;;;14.30;;
10244;SDS011;5167;52.164;10.530;2022-12-18T05:32:51;32.90;;;15.90;;
10244;SDS011;5167;52.164;10.530;2022-12-18T05:35:16;27.87;;;15.53;;
10244;SDS011;5167;52.164;10.530;2022-12-18T05:37:42;31.97;;;15.27;;
10244;SDS011;5167;52.164;10.530;2022-12-18T05:40:08;38.20;;;17.23;;
10244;SDS011;5167;52.164;10.530;2022-12-18T05:42:34;29.33;;;15.97;;
10244;SDS011;5167;52.164;10.530;2022-12-18T05:44:59;37.50;;;17.40;;
10244;SDS011;5167;52.164;10.530;2022-12-18T05:47:26;32.93;;;14.80;;
10244;SDS011;5167;52.164;10.530;2022-12-18T05:49:52;33.33;;;15.43;;
10244;SDS011;5167;52.164;10.530;2022-12-18T05:52:17;29.53;;;15.80;;
10244;SDS011;5167;52.164;10.530;2022-12-18T05:54:43;31.70;;;16.13;;
10244;SDS011;5167;52.164;10.530;2022-12-18T05:57:08;29.00;;;15.27;;
10244;SDS011;5167;52.164;10.530;2022-12-18T05:59:34;26.90;;;14.97;;
10244;SDS011;5167;52.164;10.530;2022-12-18T06:01:59;29.77;;;13.10;;
10244;SDS011;5167;52.164;10.530;2022-12-18T06:04:27;27.50;;;14.63;;
10244;SDS011;5167;52.164;10.530;2022-12-18T06:06:56;36.03;;;16.17;;
10244;SDS011;5167;52.164;10.530;2022-12-18T06:09:22;42.00;;;18.97;;
10244;SDS011;5167;52.164;10.530;2022-12-18T06:11:47;34.73;;;15.87;;
10244;SDS011;5167;52.164;10.530;2022-12-18T06:14:13;28.03;;;14.77;;
10244;SDS011;5167;52.164;10.530;2022-12-18T06:16:38;34.67;;;16.43;;
10244;SDS011;5167;52.164;10.530;2022-12-18T06:19:04;41.10;;;16.27;;
10244;SDS011;5167;52.164;10.530;2022-12-18T06:21:30;34.73;;;16.73;;
10244;SDS011;5167;52.164;10.530;2022-12-18T06:23:56;32.20;;;14.87;;
10244;SDS011;5167;52.164;10.530;2022-12-18T06:26:22;33.03;;;15.90;;
10244;SDS011;5167;52.164;10.530;2022-12-18T06:28:48;36.07;;;16.57;;
10244;SDS011;5167;52.164;10.530;2022-12-18T06:31:14;37.63;;;17.53;;
10244;SDS011;5167;52.164;10.530;2022-12-18T06:33:39;34.97;;;14.80;;
10244;SDS011;5167;52.164;10.530;2022-12-18T06:36:11;36.13;;;17.77;;
10244;SDS011;5167;52.164;10.530;2022-12-18T06:38:40;36.27;;;16.70;;
10244;SDS011;5167;52.164;10.530;2022-12-18T06:41:07;42.10;;;17.13;;
10244;SDS011;5167;52.164;10.530;2022-12-18T06:43:37;29.93;;;13.90;;
10244;SDS011;5167;52.164;10.530;2022-12-18T06:46:03;29.20;;;14.43;;
10244;SDS011;5167;52.164;10.530;2022-12-18T06:48:29;27.70;;;14.93;;
10244;SDS011;5167;52.164;10.530;2022-12-18T06:50:55;35.50;;;15.87;;
10244;SDS011;5167;52.164;10.530;2022-12-18T06:53:21;44.33;;;17.40;;
10244;SDS011;5167;52.164;10.530;2022-12-18T06:55:47;39.33;;;18.23;;
10244;SDS011;5167;52.164;10.530;2022-12-18T06:58:13;40.10;;;15.50;;
10244;SDS011;5167;52.164;10.530;2022-12-18T07:00:38;37.67;;;16.40;;
10244;SDS011;5167;52.164;10.530;2022-12-18T07:03:04;34.90;;;16.03;;
10244;SDS011;5167;52.164;10.530;2022-12-18T07:05:29;34.50;;;16.90;;
10244;SDS011;5167;52.164;10.530;2022-12-18T07:07:55;34.83;;;15.57;;
10244;SDS011;5167;52.164;10.530;2022-12-18T07:10:20;26.33;;;14.70;;
10244;SDS011;5167;52.164;10.530;2022-12-18T07:12:46;37.73;;;16.40;;
10244;SDS011;5167;52.164;10.530;2022-12-18T07:15:12;43.03;;;17.50;;
10244;SDS011;5167;52.164;10.530;2022-12-18T07:17:37;39.53;;;17.80;;
10244;SDS011;5167;52.164;10.530;2022-12-18T07:20:03;35.17;;;16.70;;
10244;SDS011;5167;52.164;10.530;2022-12-18T07:22:28;29.70;;;15.03;;
10244;SDS011;5167;52.164;10.530;2022-12-18T07:24:54;38.37;;;15.43;;
10244;SDS011;5167;52.164;10.530;2022-12-18T07:27:20;32.37;;;17.03;;
10244;SDS011;5167;52.164;10.530;2022-12-18T07:29:46;34.23;;;16.63;;
10244;SDS011;5167;52.164;10.530;2022-12-18T07:32:11;36.47;;;16.20;;
10244;SDS011;5167;52.164;10.530;2022-12-18T07:34:37;38.73;;;16.20;;
10244;SDS011;5167;52.164;10.530;2022-12-18T07:37:02;34.07;;;15.53;;
10244;SDS011;5167;52.164;10.530;2022-12-18T07:39:28;41.13;;;17.23;;
10244;SDS011;5167;52.164;10.530;2022-12-18T07:41:53;36.73;;;18.40;;
10244;SDS011;5167;52.164;10.530;2022-12-18T07:44:37;36.80;;;16.43;;
10244;SDS011;5167;52.164;10.530;2022-12-18T07:47:04;34.23;;;16.10;;
10244;SDS011;5167;52.164;10.530;2022-12-18T07:49:29;47.57;;;18.90;;
10244;SDS011;5167;52.164;10.530;2022-12-18T07:51:55;43.27;;;16.30;;
10244;SDS011;5167;52.164;10.530;2022-12-18T07:54:22;34.10;;;16.00;;
10244;SDS011;5167;52.164;10.530;2022-12-18T07:56:48;37.63;;;16.17;;
10244;SDS011;5167;52.164;10.530;2022-12-18T07:59:14;34.23;;;16.03;;
10244;SDS011;5167;52.164;10.530;2022-12-18T08:01:39;34.40;;;16.53;;
10244;SDS011;5167;52.164;10.530;2022-12-18T08:04:05;30.70;;;15.03;;
10244;SDS011;5167;52.164;10.530;2022-12-18T08:06:30;36.17;;;16.47;;
10244;SDS011;5167;52.164;10.530;2022-12-18T08:08:56;35.67;;;17.63;;
10244;SDS011;5167;52.164;10.530;2022-12-18T08:11:23;42.60;;;17.10;;
10244;SDS011;5167;52.164;10.530;2022-12-18T08:13:50;41.97;;;18.40;;
10244;SDS011;5167;52.164;10.530;2022-12-18T08:16:16;37.03;;;17.13;;
10244;SDS011;5167;52.164;10.530;2022-12-18T08:18:42;42.03;;;17.53;;
10244;SDS011;5167;52.164;10.530;2022-12-18T08:21:11;46.33;;;17.33;;
10244;SDS011;5167;52.164;10.530;2022-12-18T08:23:38;37.93;;;15.77;;
10244;SDS011;5167;52.164;10.530;2022-12-18T08:26:04;40.93;;;16.87;;
10244;SDS011;5167;52.164;10.530;2022-12-18T08:28:30;40.53;;;16.57;;
10244;SDS011;5167;52.164;10.530;2022-12-18T08:30:56;41.20;;;19.87;;
10244;SDS011;5167;52.164;10.530;2022-12-18T08:33:21;42.40;;;16.57;;
10244;SDS011;5167;52.164;10.530;2022-12-18T08:35:47;35.47;;;16.97;;
10244;SDS011;5167;52.164;10.530;2022-12-18T08:38:12;37.37;;;17.53;;
10244;SDS011;5167;52.164;10.530;2022-12-18T08:40:38;42.03;;;16.07;;
10244;SDS011;5167;52.164;10.530;2022-12-18T08:43:03;41.17;;;18.00;;
10244;SDS011;5167;52.164;10.530;2022-12-18T08:45:47;38.17;;;16.73;;
10244;SDS011;5167;52.164;10.530;2022-12-18T08:48:13;33.80;;;16.53;;
10244;SDS011;5167;52.164;10.530;2022-12-18T08:50:39;38.40;;;16.37;;
10244;SDS011;5167;52.164;10.530;2022-12-18T08:53:05;45.83;;;18.17;;
10244;SDS011;5167;52.164;10.530;2022-12-18T08:55:30;38.57;;;16.23;;
10244;SDS011;5167;52.164;10.530;2022-12-18T08:57:56;45.00;;;18.63;;
10244;SDS011;5167;52.164;10.530;2022-12-18T09:00:21;41.23;;;17.03;;
10244;SDS011;5167;52.164;10.530;2022-12-18T09:02:47;45.90;;;18.23;;
10244;SDS011;5167;52.164;10.530;2022-12-18T09:05:12;31.40;;;17.43;;
10244;SDS011;5167;52.164;10.530;2022-12-18T09:07:38;32.17;;;16.53;;
10244;SDS011;5167;52.164;10.530;2022-12-18T09:10:04;37.23;;;16.33;;
10244;SDS011;5167;52.164;10.530;2022-12-18T09:12:30;42.17;;;17.70;;
10244;SDS011;5167;52.164;10.530;2022-12-18T09:14:56;39.50;;;14.97;;
10244;SDS011;5167;52.164;10.530;2022-12-18T09:17:22;38.97;;;16.90;;
10244;SDS011;5167;52.164;10.530;2022-12-18T09:19:47;37.97;;;17.03;;
10244;SDS011;5167;52.164;10.530;2022-12-18T09:22:13;42.50;;;16.63;;
10244;SDS011;5167;52.164;10.530;2022-12-18T09:24:38;42.43;;;16.73;;
10244;SDS011;5167;52.164;10.530;2022-12-18T09:27:04;43.20;;;16.97;;
10244;SDS011;5167;52.164;10.530;2022-12-18T09:29:30;36.93;;;16.13;;
10244;SDS011;5167;52.164;10.530;2022-12-18T09:31:55;30.80;;;15.03;;
10244;SDS011;5167;52.164;10.530;2022-12-18T09:34:21;41.17;;;16.33;;
10244;SDS011;5167;52.164;10.530;2022-12-18T09:36:47;36.97;;;16.87;;
10244;SDS011;5167;52.164;10.530;2022-12-18T09:39:13;36.57;;;15.27;;
10244;SDS011;5167;52.164;10.530;2022-12-18T09:50:04;36.33;;;17.23;;
10244;SDS011;5167;52.164;10.530;2022-12-18T09:52:51;44.17;;;18.27;;
10244;SDS011;5167;52.164;10.530;2022-12-18T09:55:34;38.40;;;17.13;;
10244;SDS011;5167;52.164;10.530;2022-12-18T09:58:17;46.50;;;18.97;;
10244;SDS011;5167;52.164;10.530;2022-12-18T10:00:51;33.53;;;16.70;;
10244;SDS011;5167;52.164;10.530;2022-12-18T10:03:17;37.73;;;16.57;;
10244;SDS011;5167;52.164;10.530;2022-12-18T10:08:51;42.93;;;17.33;;
10244;SDS011;5167;52.164;10.530;2022-12-18T10:11:09;35.10;;;15.77;;
10244;SDS011;5167;52.164;10.530;2022-12-18T10:13:42;41.47;;;17.90;;
10244;SDS011;5167;52.164;10.530;2022-12-18T10:16:17;41.07;;;18.07;;
10244;SDS011;5167;52.164;10.530;2022-12-18T10:22:11;39.27;;;16.63;;
10244;SDS011;5167;52.164;10.530;2022-12-18T10:25:16;33.53;;;15.67;;
10244;SDS011;5167;52.164;10.530;2022-12-18T10:27:43;42.37;;;17.57;;
10244;SDS011;5167;52.164;10.530;2022-12-18T10:30:12;38.63;;;18.10;;
10244;SDS011;5167;52.164;10.530;2022-12-18T10:32:39;32.83;;;16.17;;
10244;SDS011;5167;52.164;10.530;2022-12-18T10:35:07;36.50;;;16.70;;
10244;SDS011;5167;52.164;10.530;2022-12-18T10:43:31;42.37;;;17.73;;
10244;SDS011;5167;52.164;10.530;2022-12-18T10:45:59;38.37;;;16.60;;
10244;SDS011;5167;52.164;10.530;2022-12-18T10:51:18;46.37;;;19.60;;
10244;SDS011;5167;52.164;10.530;2022-12-18T10:54:04;37.00;;;17.60;;
10244;SDS011;5167;52.164;10.530;2022-12-18T10:56:37;35.57;;;16.17;;
10244;SDS011;5167;52.164;10.530;2022-12-18T10:59:09;36.40;;;15.90;;
10244;SDS011;5167;52.164;10.530;2022-12-18T11:01:47;40.07;;;16.80;;
10244;SDS011;5167;52.164;10.530;2022-12-18T11:04:16;39.33;;;18.63;;
10244;SDS011;5167;52.164;10.530;2022-12-18T11:09:28;42.07;;;18.10;;
10244;SDS011;5167;52.164;10.530;2022-12-18T11:11:55;39.80;;;17.47;;
10244;SDS011;5167;52.164;10.530;2022-12-18T11:14:25;39.67;;;17.23;;
10244;SDS011;5167;52.164;10.530;2022-12-18T11:16:55;40.87;;;18.20;;
10244;SDS011;5167;52.164;10.530;2022-12-18T11:21:59;37.20;;;17.63;;
10244;SDS011;5167;52.164;10.530;2022-12-18T11:24:33;43.87;;;18.23;;
10244;SDS011;5167;52.164;10.530;2022-12-18T11:27:01;35.97;;;17.43;;
10244;SDS011;5167;52.164;10.530;2022-12-18T11:29:33;35.67;;;15.67;;
10244;SDS011;5167;52.164;10.530;2022-12-18T11:32:21;40.77;;;17.07;;
10244;SDS011;5167;52.164;10.530;2022-12-18T11:34:52;40.67;;;17.77;;
10244;SDS011;5167;52.164;10.530;2022-12-18T11:37:24;46.10;;;18.50;;
10244;SDS011;5167;52.164;10.530;2022-12-18T11:39:57;37.30;;;18.07;;
10244;SDS011;5167;52.164;10.530;2022-12-18T11:42:30;43.37;;;18.67;;
10244;SDS011;5167;52.164;10.530;2022-12-18T11:47:51;42.03;;;17.57;;
10244;SDS011;5167;52.164;10.530;2022-12-18T11:50:24;33.17;;;17.23;;
10244;SDS011;5167;52.164;10.530;2022-12-18T11:52:53;41.33;;;17.50;;
10244;SDS011;5167;52.164;10.530;2022-12-18T11:55:35;40.33;;;18.40;;
10244;SDS011;5167;52.164;10.530;2022-12-18T11:58:41;38.73;;;17.63;;
10244;SDS011;5167;52.164;10.530;2022-12-18T12:09:34;33.43;;;16.73;;
10244;SDS011;5167;52.164;10.530;2022-12-18T12:12:17;38.00;;;17.43;;
10244;SDS011;5167;52.164;10.530;2022-12-18T12:14:55;36.97;;;16.17;;
10244;SDS011;5167;52.164;10.530;2022-12-18T12:17:44;33.30;;;16.90;;
10244;SDS011;5167;52.164;10.530;2022-12-18T12:26:03;27.60;;;13.97;;
10244;SDS011;5167;52.164;10.530;2022-12-18T12:31:36;27.37;;;13.57;;
10244;SDS011;5167;52.164;10.530;2022-12-18T12:39:58;25.47;;;13.90;;
10244;SDS011;5167;52.164;10.530;2022-12-18T12:42:35;30.03;;;14.77;;
10244;SDS011;5167;52.164;10.530;2022-12-18T12:45:29;31.83;;;14.43;;
10244;SDS011;5167;52.164;10.530;2022-12-18T12:48:01;33.67;;;13.90;;
10244;SDS011;5167;52.164;10.530;2022-12-18T12:50:30;25.97;;;13.77;;
10244;SDS011;5167;52.164;10.530;2022-12-18T12:52:58;29.80;;;13.67;;
10244;SDS011;5167;52.164;10.530;2022-12-18T12:55:26;26.17;;;13.53;;
10244;SDS011;5167;52.164;10.530;2022-12-18T13:01:08;34.07;;;13.80;;
10244;SDS011;5167;52.164;10.530;2022-12-18T13:04:00;30.73;;;14.53;;
10244;SDS011;5167;52.164;10.530;2022-12-18T13:06:37;29.00;;;14.40;;
10244;SDS011;5167;52.164;10.530;2022-12-18T13:09:15;27.73;;;13.93;;
10244;SDS011;5167;52.164;10.530;2022-12-18T13:11:41;23.23;;;12.60;;
10244;SDS011;5167;52.164;10.530;2022-12-18T13:14:38;26.80;;;13.23;;
10244;SDS011;5167;52.164;10.530;2022-12-18T13:19:49;20.67;;;11.03;;
10244;SDS011;5167;52.164;10.530;2022-12-18T13:22:22;21.40;;;11.63;;
10244;SDS011;5167;52.164;10.530;2022-12-18T13:28:02;25.63;;;12.47;;
10244;SDS011;5167;52.164;10.530;2022-12-18T13:38:24;25.97;;;12.77;;
10244;SDS011;5167;52.164;10.530;2022-12-18T13:41:00;28.30;;;13.37;;
10244;SDS011;5167;52.164;10.530;2022-12-18T13:48:41;28.50;;;14.17;;
10244;SDS011;5167;52.164;10.530;2022-12-18T13:51:16;23.37;;;13.13;;
10244;SDS011;5167;52.164;10.530;2022-12-18T13:53:46;27.50;;;14.00;;
10244;SDS011;5167;52.164;10.530;2022-12-18T13:56:21;29.73;;;15.83;;
10244;SDS011;5167;52.164;10.530;2022-12-18T13:59:06;26.70;;;15.17;;
10244;SDS011;5167;52.164;10.530;2022-12-18T14:04:22;28.13;;;14.83;;
10244;SDS011;5167;52.164;10.530;2022-12-18T14:09:36;25.13;;;14.03;;
10244;SDS011;5167;52.164;10.530;2022-12-18T14:12:05;23.30;;;13.73;;
10244;SDS011;5167;52.164;10.530;2022-12-18T14:14:51;30.40;;;13.63;;
10244;SDS011;5167;52.164;10.530;2022-12-18T14:17:17;25.00;;;13.83;;
10244;SDS011;5167;52.164;10.530;2022-12-18T14:19:47;22.33;;;13.67;;
10244;SDS011;5167;52.164;10.530;2022-12-18T14:22:16;32.33;;;14.40;;
10244;SDS011;5167;52.164;10.530;2022-12-18T14:24:44;29.77;;;15.80;;
10244;SDS011;5167;52.164;10.530;2022-12-18T14:27:20;29.03;;;14.70;;
10244;SDS011;5167;52.164;10.530;2022-12-18T14:29:48;28.63;;;14.90;;
10244;SDS011;5167;52.164;10.530;2022-12-18T14:32:15;33.57;;;16.57;;
10244;SDS011;5167;52.164;10.530;2022-12-18T14:34:49;25.57;;;15.87;;
10244;SDS011;5167;52.164;10.530;2022-12-18T14:37:22;29.57;;;15.33;;
10244;SDS011;5167;52.164;10.530;2022-12-18T14:39:56;27.63;;;15.37;;
10244;SDS011;5167;52.164;10.530;2022-12-18T14:42:24;27.63;;;14.40;;
10244;SDS011;5167;52.164;10.530;2022-12-18T14:45:18;25.53;;;14.77;;
10244;SDS011;5167;52.164;10.530;2022-12-18T14:47:57;31.67;;;15.03;;
10244;SDS011;5167;52.164;10.530;2022-12-18T14:50:23;26.03;;;14.83;;
10244;SDS011;5167;52.164;10.530;2022-12-18T14:52:49;26.10;;;15.13;;
10244;SDS011;5167;52.164;10.530;2022-12-18T14:55:16;28.67;;;15.37;;
10244;SDS011;5167;52.164;10.530;2022-12-18T14:57:43;26.93;;;14.83;;
10244;SDS011;5167;52.164;10.530;2022-12-18T15:00:15;30.97;;;14.60;;
10244;SDS011;5167;52.164;10.530;2022-12-18T15:02:44;29.97;;;14.87;;
10244;SDS011;5167;52.164;10.530;2022-12-18T15:07:39;27.63;;;13.83;;
10244;SDS011;5167;52.164;10.530;2022-12-18T15:10:11;25.47;;;14.50;;
10244;SDS011;5167;52.164;10.530;2022-12-18T15:12:43;24.30;;;13.73;;
10244;SDS011;5167;52.164;10.530;2022-12-18T15:18:13;20.80;;;12.40;;
10244;SDS011;5167;52.164;10.530;2022-12-18T15:20:47;20.43;;;11.37;;
10244;SDS011;5167;52.164;10.530;2022-12-18T15:23:24;21.33;;;12.27;;
10244;SDS011;5167;52.164;10.530;2022-12-18T15:26:08;19.17;;;11.37;;
10244;SDS011;5167;52.164;10.530;2022-12-18T15:28:39;17.03;;;9.93;;
10244;SDS011;5167;52.164;10.530;2022-12-18T15:33:42;19.37;;;10.40;;
10244;SDS011;5167;52.164;10.530;2022-12-18T15:36:12;15.90;;;9.57;;
10244;SDS011;5167;52.164;10.530;2022-12-18T15:38:39;16.83;;;9.03;;
10244;SDS011;5167;52.164;10.530;2022-12-18T15:41:04;16.80;;;10.03;;
10244;SDS011;5167;52.164;10.530;2022-12-18T15:43:30;15.17;;;9.57;;
10244;SDS011;5167;52.164;10.530;2022-12-18T15:45:59;13.37;;;9.00;;
10244;SDS011;5167;52.164;10.530;2022-12-18T15:48:40;18.73;;;8.93;;
10244;SDS011;5167;52.164;10.530;2022-12-18T15:53:43;17.97;;;8.70;;
10244;SDS011;5167;52.164;10.530;2022-12-18T15:56:13;15.50;;;9.93;;
10244;SDS011;5167;52.164;10.530;2022-12-18T15:58:59;15.70;;;9.07;;
10244;SDS011;5167;52.164;10.530;2022-12-18T16:01:26;15.10;;;8.27;;
10244;SDS011;5167;52.164;10.530;2022-12-18T16:03:53;17.93;;;10.63;;
10244;SDS011;5167;52.164;10.530;2022-12-18T16:06:19;16.30;;;9.80;;
10244;SDS011;5167;52.164;10.530;2022-12-18T16:08:45;17.87;;;10.93;;
10244;SDS011;5167;52.164;10.530;2022-12-18T16:11:19;18.60;;;9.77;;
10244;SDS011;5167;52.164;10.530;2022-12-18T16:14:25;21.67;;;9.97;;
10244;SDS011;5167;52.164;10.530;2022-12-18T16:16:54;21.00;;;10.60;;
10244;SDS011;5167;52.164;10.530;2022-12-18T16:19:21;17.77;;;10.77;;
10244;SDS011;5167;52.164;10.530;2022-12-18T16:21:48;15.80;;;9.33;;
10244;SDS011;5167;52.164;10.530;2022-12-18T16:24:16;22.00;;;11.27;;
10244;SDS011;5167;52.164;10.530;2022-12-18T16:26:43;20.70;;;10.57;;
10244;SDS011;5167;52.164;10.530;2022-12-18T16:29:09;18.07;;;11.27;;
10244;SDS011;5167;52.164;10.530;2022-12-18T16:31:35;20.80;;;10.63;;